Time;durP1;ratioP1;P1;durP2;ratioP2;P2;SDS_P1;SDS_P2;PMS_P1;PMS_P2;Temp;Humidity;BMP_temperature;BMP_pressure;BME280_temperature;BME280_humidity;BME280_pressure;Samples;Min_cycle;Max_cycle;Signal;HPM_P1;HPM_P2
2022/08/21 00:00:38;;;;;;;8.63;4.83;;;18.90;97.30;;;;;;5046067;28;20223;-89
2022/08/21 00:03:06;;;;;;;10.03;5.80;;;18.90;97.30;;;;;;5044792;28;20281;-91
2022/08/21 00:05:35;;;;;;;18.03;7.27;;;18.90;97.30;;;;;;5041944;28;20442;-90
2022/08/21 00:08:01;;;;;;;15.33;6.37;;;18.90;97.30;;;;;;5059473;28;20458;-91
2022/08/21 00:10:27;;;;;;;9.97;6.07;;;18.90;97.30;;;;;;5062872;28;20450;-91
2022/08/21 00:12:53;;;;;;;9.70;5.97;;;18.90;97.30;;;;;;5040937;28;20434;-91
2022/08/21 00:15:27;;;;;;;9.93;6.97;;;18.80;97.30;;;;;;5049106;28;20650;-91
2022/08/21 00:17:54;;;;;;;9.43;6.37;;;18.80;97.30;;;;;;5057591;28;20744;-91
2022/08/21 00:20:20;;;;;;;10.70;6.00;;;18.80;97.30;;;;;;5049591;28;20547;-91
2022/08/21 00:22:46;;;;;;;9.57;5.10;;;18.80;97.30;;;;;;5072328;28;20429;-91
2022/08/21 00:25:13;;;;;;;6.17;4.77;;;18.80;97.30;;;;;;5089715;28;20432;-92
2022/08/21 00:27:39;;;;;;;12.43;5.57;;;18.80;97.30;;;;;;5069782;28;20521;-91
2022/08/21 00:30:06;;;;;;;12.60;7.40;;;18.70;97.30;;;;;;5044898;28;20418;-91
2022/08/21 00:32:32;;;;;;;12.27;7.23;;;18.70;97.30;;;;;;5072313;28;20421;-91
2022/08/21 00:34:58;;;;;;;7.80;3.60;;;18.70;97.30;;;;;;5056046;28;20503;-91
2022/08/21 00:37:24;;;;;;;7.97;4.80;;;18.70;97.30;;;;;;5043003;28;20548;-91
2022/08/21 00:39:49;;;;;;;13.70;7.90;;;18.70;97.30;;;;;;5052080;28;20202;-91
2022/08/21 00:42:15;;;;;;;11.57;6.23;;;18.70;97.30;;;;;;5040328;28;20478;-91
2022/08/21 00:44:46;;;;;;;15.50;6.73;;;18.60;97.30;;;;;;5036592;28;20458;-91
2022/08/21 00:47:12;;;;;;;7.00;3.63;;;18.70;97.30;;;;;;5051126;28;20493;-91
2022/08/21 00:49:39;;;;;;;8.57;5.40;;;18.60;97.30;;;;;;5042907;28;20446;-91
2022/08/21 00:52:09;;;;;;;12.27;5.57;;;18.60;97.30;;;;;;5034103;28;20452;-91
2022/08/21 00:54:35;;;;;;;8.50;5.00;;;18.60;97.30;;;;;;5043516;28;20438;-91
2022/08/21 00:57:04;;;;;;;7.90;5.13;;;18.60;97.30;;;;;;5041416;28;21002;-92
2022/08/21 00:59:34;;;;;;;6.90;3.40;;;18.60;97.30;;;;;;5048346;28;20952;-91
2022/08/21 01:02:00;;;;;;;4.97;3.20;;;18.60;97.30;;;;;;5036256;28;20542;-91
2022/08/21 01:04:26;;;;;;;5.97;3.60;;;18.60;97.30;;;;;;5043061;28;20426;-91
2022/08/21 01:06:52;;;;;;;12.53;5.67;;;18.60;97.30;;;;;;5040620;28;20457;-91
2022/08/21 01:09:18;;;;;;;6.77;4.23;;;18.60;97.30;;;;;;5033705;28;20213;-91
2022/08/21 01:11:45;;;;;;;11.50;4.13;;;18.60;97.30;;;;;;5035377;28;20528;-91
2022/08/21 01:14:12;;;;;;;5.13;3.73;;;18.60;97.30;;;;;;5031750;28;21016;-91
2022/08/21 01:16:40;;;;;;;10.97;4.33;;;18.60;97.30;;;;;;5034738;28;20499;-91
2022/08/21 01:19:08;;;;;;;5.30;3.47;;;18.60;97.30;;;;;;5036424;28;20612;-91
2022/08/21 01:21:41;;;;;;;5.37;2.80;;;18.60;97.30;;;;;;5038786;28;20490;-90
2022/08/21 01:24:09;;;;;;;9.20;4.50;;;18.50;97.30;;;;;;5022787;28;20952;-92
2022/08/21 01:26:36;;;;;;;10.70;3.70;;;18.50;97.30;;;;;;5027832;28;20433;-92
2022/08/21 01:29:30;;;;;;;11.57;4.00;;;18.50;97.30;;;;;;5043336;28;20457;-91
2022/08/21 01:31:59;;;;;;;5.43;3.80;;;18.50;97.30;;;;;;5045560;28;20422;-91
2022/08/21 01:34:25;;;;;;;11.93;4.67;;;18.50;97.30;;;;;;5042010;28;21021;-91
2022/08/21 01:36:50;;;;;;;3.80;3.20;;;18.50;97.30;;;;;;5034777;28;20459;-91
2022/08/21 01:39:16;;;;;;;8.93;4.63;;;18.50;97.30;;;;;;5057914;28;20259;-91
2022/08/21 01:41:42;;;;;;;2.63;2.43;;;18.50;97.30;;;;;;5038103;28;20599;-91
2022/08/21 01:44:08;;;;;;;8.63;4.00;;;18.50;97.30;;;;;;5032129;28;20317;-92
2022/08/21 01:46:33;;;;;;;5.50;3.90;;;18.50;97.30;;;;;;5035414;28;20223;-92
2022/08/21 01:48:59;;;;;;;7.93;3.10;;;18.50;97.30;;;;;;5072030;23;20237;-81
2022/08/21 01:51:25;;;;;;;5.17;3.57;;;18.50;97.30;;;;;;5112134;28;20201;-81
2022/08/21 01:53:50;;;;;;;9.67;4.27;;;18.50;97.30;;;;;;5094785;28;20188;-81
2022/08/21 01:56:17;;;;;;;7.10;4.10;;;18.40;97.30;;;;;;5112411;28;20634;-81
2022/08/21 01:58:45;;;;;;;5.80;3.67;;;18.50;97.30;;;;;;5112507;28;20223;-82
2022/08/21 02:01:11;;;;;;;6.50;4.70;;;18.50;97.30;;;;;;5112547;28;20455;-81
2022/08/21 02:03:38;;;;;;;5.70;4.13;;;18.50;97.30;;;;;;5112749;28;20459;-82
2022/08/21 02:06:05;;;;;;;9.90;5.50;;;18.50;97.30;;;;;;5112177;28;20173;-84
2022/08/21 02:08:30;;;;;;;10.00;4.40;;;18.40;97.30;;;;;;5114622;28;20775;-83
2022/08/21 02:10:56;;;;;;;6.63;3.67;;;18.50;97.30;;;;;;5116012;28;20412;-82
2022/08/21 02:13:22;;;;;;;13.87;6.17;;;18.50;97.30;;;;;;5116389;28;20547;-83
2022/08/21 02:15:48;;;;;;;8.20;6.87;;;18.40;97.30;;;;;;5115967;28;20670;-84
2022/08/21 02:18:14;;;;;;;19.93;3.30;;;18.40;97.30;;;;;;5115933;28;20264;-82
2022/08/21 02:20:44;;;;;;;7.77;4.53;;;18.40;97.30;;;;;;5115515;28;20949;-84
2022/08/21 02:23:11;;;;;;;10.87;3.67;;;18.40;97.30;;;;;;5115487;28;20180;-83
2022/08/21 02:25:37;;;;;;;3.70;2.77;;;18.40;97.30;;;;;;5115840;28;20916;-83
2022/08/21 02:28:10;;;;;;;7.90;3.93;;;18.30;97.30;;;;;;5115351;28;20411;-83
2022/08/21 02:30:40;;;;;;;9.87;4.23;;;18.30;97.30;;;;;;5115498;28;20439;-83
2022/08/21 02:33:07;;;;;;;4.80;2.60;;;18.30;97.30;;;;;;5117260;28;20400;-84
2022/08/21 02:35:34;;;;;;;5.57;2.87;;;18.30;97.30;;;;;;5115729;28;20942;-84
2022/08/21 02:38:08;;;;;;;6.67;3.47;;;18.30;97.30;;;;;;5115759;28;20785;-83
2022/08/21 02:40:37;;;;;;;3.77;3.47;;;18.30;97.30;;;;;;5115595;28;20488;-83
2022/08/21 02:43:04;;;;;;;8.03;3.70;;;18.20;97.30;;;;;;5115813;28;20415;-83
2022/08/21 02:45:31;;;;;;;4.17;2.90;;;18.20;97.30;;;;;;5114939;28;20416;-83
2022/08/21 02:48:05;;;;;;;7.77;3.60;;;18.20;97.30;;;;;;5116570;28;20440;-84
2022/08/21 02:50:33;;;;;;;6.27;3.50;;;18.20;97.30;;;;;;5116618;28;20442;-83
2022/08/21 02:52:59;;;;;;;8.00;4.63;;;18.20;97.30;;;;;;5115623;28;20482;-84
2022/08/21 02:55:27;;;;;;;5.17;3.43;;;18.20;97.30;;;;;;5115467;28;20419;-84
2022/08/21 02:57:54;;;;;;;20.63;3.93;;;18.20;97.30;;;;;;5115566;28;20411;-84
2022/08/21 03:00:22;;;;;;;3.50;2.40;;;18.20;97.30;;;;;;5115580;28;20481;-83
2022/08/21 03:02:49;;;;;;;3.70;2.20;;;18.10;97.30;;;;;;5098448;28;20412;-84
2022/08/21 03:05:15;;;;;;;4.83;2.50;;;18.10;97.30;;;;;;5115346;28;21012;-84
2022/08/21 03:07:42;;;;;;;4.97;3.30;;;18.10;97.30;;;;;;5115449;28;20408;-84
2022/08/21 03:10:08;;;;;;;6.97;3.67;;;18.10;97.30;;;;;;5115179;28;20442;-84
2022/08/21 03:12:35;;;;;;;5.17;3.53;;;18.00;97.30;;;;;;5115381;28;20904;-83
2022/08/21 03:15:06;;;;;;;4.57;2.87;;;18.00;97.30;;;;;;5115277;28;20449;-83
2022/08/21 03:17:32;;;;;;;5.03;2.40;;;18.00;97.30;;;;;;5115194;28;20412;-84
2022/08/21 03:19:58;;;;;;;2.83;2.63;;;18.00;97.30;;;;;;5113868;28;20434;-84
2022/08/21 03:22:23;;;;;;;1.77;1.70;;;18.00;97.30;;;;;;5115069;28;20416;-83
2022/08/21 03:24:49;;;;;;;8.87;4.03;;;18.00;97.30;;;;;;5114737;28;20184;-84
2022/08/21 03:27:15;;;;;;;14.30;2.00;;;18.00;97.30;;;;;;5097782;28;20177;-83
2022/08/21 03:29:40;;;;;;;12.23;2.90;;;17.90;97.30;;;;;;5114909;28;20793;-84
2022/08/21 03:32:09;;;;;;;3.73;2.20;;;17.90;97.30;;;;;;5114852;28;20635;-84
2022/08/21 03:34:35;;;;;;;3.03;2.10;;;17.90;97.30;;;;;;5116263;28;20178;-84
2022/08/21 03:37:01;;;;;;;2.60;2.13;;;17.90;97.30;;;;;;5114594;28;20422;-82
2022/08/21 03:39:27;;;;;;;3.90;2.97;;;17.80;97.30;;;;;;5114406;28;21001;-83
2022/08/21 03:41:53;;;;;;;4.93;1.93;;;17.80;97.30;;;;;;5114686;28;20522;-83
2022/08/21 03:44:19;;;;;;;2.03;1.73;;;17.80;97.30;;;;;;5114542;28;20657;-84
2022/08/21 03:46:45;;;;;;;5.70;2.47;;;17.90;97.30;;;;;;5114760;28;20415;-83
2022/08/21 03:49:10;;;;;;;2.53;2.10;;;17.80;97.30;;;;;;5114338;28;20225;-83
2022/08/21 03:51:36;;;;;;;2.73;2.53;;;17.80;97.30;;;;;;5097785;28;20188;-83
2022/08/21 03:54:02;;;;;;;3.73;2.33;;;17.90;97.30;;;;;;5114480;28;20231;-83
2022/08/21 03:56:28;;;;;;;5.17;2.60;;;17.80;97.30;;;;;;5114412;28;20423;-85
2022/08/21 03:58:54;;;;;;;3.10;1.80;;;17.80;97.30;;;;;;5114355;28;20442;-84
2022/08/21 04:01:19;;;;;;;1.80;1.53;;;17.80;97.30;;;;;;5114389;28;20198;-85
2022/08/21 04:03:45;;;;;;;7.00;1.83;;;17.80;97.30;;;;;;5097441;28;20611;-85
2022/08/21 04:06:10;;;;;;;1.60;1.47;;;17.80;97.30;;;;;;5114286;28;20192;-85
2022/08/21 04:08:36;;;;;;;2.57;1.90;;;17.80;97.30;;;;;;5114116;28;20173;-84
2022/08/21 04:11:02;;;;;;;2.63;2.43;;;17.80;97.30;;;;;;5114178;28;20277;-84
2022/08/21 04:13:28;;;;;;;1.87;1.83;;;17.80;97.30;;;;;;5114368;28;20188;-84
2022/08/21 04:15:54;;;;;;;1.97;1.77;;;17.70;97.30;;;;;;5114314;28;20420;-84
2022/08/21 04:18:20;;;;;;;3.20;2.83;;;17.70;97.30;;;;;;5096876;28;20178;-83
2022/08/21 04:20:49;;;;;;;2.33;2.17;;;17.70;97.30;;;;;;5113456;28;20459;-84
2022/08/21 04:23:15;;;;;;;2.30;2.10;;;17.70;97.30;;;;;;5113891;28;20178;-84
2022/08/21 04:25:41;;;;;;;2.33;1.80;;;17.70;97.30;;;;;;5096726;28;20927;-84
2022/08/21 04:28:06;;;;;;;4.23;2.20;;;17.70;97.30;;;;;;5113679;28;20178;-84
2022/08/21 04:30:33;;;;;;;2.63;2.20;;;17.70;97.30;;;;;;5113524;28;20200;-85
2022/08/21 04:32:59;;;;;;;2.33;2.13;;;17.70;97.30;;;;;;5113644;28;20216;-84
2022/08/21 04:35:27;;;;;;;1.63;1.37;;;17.70;97.30;;;;;;5114797;28;20439;-85
2022/08/21 04:37:53;;;;;;;4.20;2.60;;;17.70;97.30;;;;;;5113307;28;20181;-85
2022/08/21 04:40:21;;;;;;;2.33;2.17;;;17.70;97.30;;;;;;5112955;28;20779;-84
2022/08/21 04:42:52;;;;;;;2.50;1.97;;;17.80;97.30;;;;;;5113144;28;20665;-85
2022/08/21 04:45:26;;;;;;;2.43;2.23;;;17.80;97.30;;;;;;5113404;28;20928;-84
2022/08/21 04:47:54;;;;;;;3.33;3.17;;;17.80;97.30;;;;;;5113001;28;20407;-84
2022/08/21 04:50:41;;;;;;;1.50;1.40;;;17.80;97.30;;;;;;5113554;28;20432;-83
2022/08/21 04:53:12;;;;;;;2.83;1.97;;;17.80;97.30;;;;;;5081979;28;20443;-83
2022/08/21 04:55:39;;;;;;;5.27;3.13;;;17.70;97.30;;;;;;5096221;28;20904;-84
2022/08/21 04:58:07;;;;;;;3.90;3.37;;;17.80;97.30;;;;;;5113334;28;20450;-85
2022/08/21 05:00:36;;;;;;;3.47;3.33;;;17.80;97.30;;;;;;5112170;28;21018;-85
2022/08/21 05:03:05;;;;;;;4.03;2.57;;;17.80;97.30;;;;;;5112366;28;20456;-84
2022/08/21 05:05:30;;;;;;;4.57;2.80;;;17.80;97.30;;;;;;5095598;28;20494;-84
2022/08/21 05:08:00;;;;;;;4.93;3.10;;;17.80;97.30;;;;;;5112699;28;20487;-84
2022/08/21 05:10:26;;;;;;;3.10;2.23;;;17.80;97.30;;;;;;5113197;28;20208;-86
2022/08/21 05:12:52;;;;;;;3.13;1.83;;;17.80;97.30;;;;;;5096002;28;20494;-86
2022/08/21 05:15:18;;;;;;;5.93;2.50;;;17.80;97.30;;;;;;5112815;28;20422;-85
2022/08/21 05:17:44;;;;;;;1.30;1.20;;;17.80;97.30;;;;;;5112386;28;20404;-83
2022/08/21 05:20:11;;;;;;;1.70;1.60;;;17.80;97.30;;;;;;5112461;28;20197;-84
2022/08/21 05:22:37;;;;;;;3.90;2.20;;;17.80;97.30;;;;;;5111942;28;20227;-84
2022/08/21 05:25:03;;;;;;;9.30;2.43;;;17.80;97.30;;;;;;5113953;28;20448;-84
2022/08/21 05:27:29;;;;;;;4.53;3.97;;;17.70;97.30;;;;;;5112359;28;20822;-84
2022/08/21 05:29:56;;;;;;;2.00;1.83;;;17.70;97.30;;;;;;5113175;28;20431;-83
2022/08/21 05:32:23;;;;;;;3.17;2.10;;;17.80;97.30;;;;;;5112617;28;20169;-84
2022/08/21 05:34:48;;;;;;;2.67;2.43;;;17.80;97.30;;;;;;5112670;28;20470;-83
2022/08/21 05:37:14;;;;;;;3.30;2.70;;;17.80;97.30;;;;;;5112412;28;20455;-85
2022/08/21 05:39:40;;;;;;;2.47;2.23;;;17.80;97.30;;;;;;5112823;28;20198;-84
2022/08/21 05:42:06;;;;;;;2.53;2.07;;;17.80;97.30;;;;;;5112035;28;20201;-85
2022/08/21 05:44:32;;;;;;;2.77;2.30;;;17.80;97.30;;;;;;5112311;28;20408;-85
2022/08/21 05:47:06;;;;;;;4.27;1.87;;;17.80;97.30;;;;;;5112506;28;20538;-84
2022/08/21 05:49:31;;;;;;;3.73;3.00;;;17.80;97.30;;;;;;5112327;28;20362;-84
2022/08/21 05:51:58;;;;;;;4.23;2.30;;;17.80;97.30;;;;;;5113148;28;20465;-84
2022/08/21 05:54:24;;;;;;;2.53;1.83;;;17.80;97.30;;;;;;5113530;28;20174;-84
2022/08/21 05:56:49;;;;;;;2.73;2.23;;;17.90;97.30;;;;;;5112461;28;20788;-84
2022/08/21 05:59:15;;;;;;;4.83;2.80;;;17.90;97.30;;;;;;5112403;28;20436;-85
2022/08/21 06:01:41;;;;;;;12.07;2.13;;;17.90;97.30;;;;;;5110672;28;20248;-84
2022/08/21 06:04:07;;;;;;;1.70;1.60;;;17.90;97.30;;;;;;5110368;28;20924;-85
2022/08/21 06:06:33;;;;;;;1.93;1.70;;;17.90;97.30;;;;;;5110197;28;20174;-85
2022/08/21 06:08:59;;;;;;;1.80;1.40;;;17.90;97.30;;;;;;5109676;28;20217;-84
2022/08/21 06:11:24;;;;;;;2.20;1.40;;;18.00;97.30;;;;;;5106741;28;20428;-84
2022/08/21 06:13:50;;;;;;;1.30;1.20;;;18.00;97.30;;;;;;5089656;28;20186;-84
2022/08/21 06:16:17;;;;;;;2.73;1.93;;;18.00;97.30;;;;;;5089777;28;20189;-84
2022/08/21 06:18:44;;;;;;;12.03;3.10;;;18.00;97.30;;;;;;5089931;28;20178;-84
2022/08/21 06:21:11;;;;;;;3.23;2.13;;;18.00;97.30;;;;;;5090118;28;20794;-84
2022/08/21 06:23:37;;;;;;;2.70;1.90;;;18.00;97.30;;;;;;5089935;28;20421;-84
2022/08/21 06:26:04;;;;;;;2.40;2.23;;;18.00;97.30;;;;;;5090022;28;20416;-84
2022/08/21 06:28:31;;;;;;;3.13;1.43;;;18.00;97.30;;;;;;5089999;28;20412;-84
2022/08/21 06:30:57;;;;;;;3.37;2.80;;;18.10;97.30;;;;;;5090303;28;20503;-84
2022/08/21 06:33:23;;;;;;;2.27;2.10;;;18.10;97.30;;;;;;5089819;28;20451;-84
2022/08/21 06:35:49;;;;;;;2.30;2.10;;;18.20;97.30;;;;;;5090658;28;20178;-84
2022/08/21 06:38:15;;;;;;;3.97;2.50;;;18.20;97.30;;;;;;5090605;28;20178;-84
2022/08/21 06:40:41;;;;;;;9.83;2.83;;;18.20;97.30;;;;;;5090261;28;20258;-84
2022/08/21 06:43:13;;;;;;;2.47;2.27;;;18.30;97.30;;;;;;5073197;28;20182;-85
2022/08/21 06:45:39;;;;;;;6.07;2.60;;;18.30;97.30;;;;;;5090031;28;20937;-84
2022/08/21 06:48:06;;;;;;;3.57;1.47;;;18.30;97.30;;;;;;5089524;28;20408;-84
2022/08/21 06:50:33;;;;;;;8.27;2.50;;;18.30;97.30;;;;;;5089715;28;20530;-84
2022/08/21 06:53:12;;;;;;;2.60;1.50;;;18.30;97.30;;;;;;5089874;28;20420;-84
2022/08/21 06:55:39;;;;;;;1.93;1.73;;;18.30;97.30;;;;;;5093646;28;20420;-84
2022/08/21 06:58:06;;;;;;;3.10;2.00;;;18.40;97.30;;;;;;5093380;28;20844;-84
2022/08/21 07:00:32;;;;;;;3.47;1.77;;;18.40;97.30;;;;;;5092829;28;20468;-84
2022/08/21 07:02:58;;;;;;;3.63;2.63;;;18.40;97.30;;;;;;5092194;28;20404;-83
2022/08/21 07:05:29;;;;;;;3.53;2.07;;;18.40;97.30;;;;;;5092420;28;20586;-84
2022/08/21 07:07:55;;;;;;;1.33;1.30;;;18.40;97.30;;;;;;5075587;28;20664;-85
2022/08/21 07:10:20;;;;;;;1.73;1.70;;;18.40;97.30;;;;;;5091048;28;20512;-83
2022/08/21 07:12:46;;;;;;;3.80;1.43;;;18.40;97.30;;;;;;5090770;28;20496;-84
2022/08/21 07:15:12;;;;;;;4.80;2.53;;;18.50;97.30;;;;;;5092248;28;20674;-84
2022/08/21 07:17:37;;;;;;;1.60;1.50;;;18.50;97.30;;;;;;5093051;28;20639;-84
2022/08/21 07:20:05;;;;;;;2.03;1.83;;;18.60;97.30;;;;;;5093499;28;20218;-83
2022/08/21 07:22:31;;;;;;;2.03;1.77;;;18.70;97.30;;;;;;5092547;28;20202;-83
2022/08/21 07:24:57;;;;;;;2.53;2.33;;;18.70;97.30;;;;;;5091592;28;20416;-84
2022/08/21 07:27:22;;;;;;;3.27;2.50;;;18.70;97.30;;;;;;5092371;28;20179;-83
2022/08/21 07:29:48;;;;;;;2.17;2.00;;;18.80;97.30;;;;;;5093363;28;20194;-83
2022/08/21 07:32:14;;;;;;;2.43;1.57;;;18.80;97.30;;;;;;5092428;28;20298;-84
2022/08/21 07:34:41;;;;;;;1.90;1.80;;;18.90;97.30;;;;;;5091009;28;20196;-83
2022/08/21 07:37:06;;;;;;;3.00;1.67;;;19.00;97.30;;;;;;5091132;28;20408;-84
2022/08/21 07:39:32;;;;;;;2.30;1.80;;;19.00;97.30;;;;;;5092687;28;20574;-84
2022/08/21 07:41:57;;;;;;;1.53;1.43;;;19.00;97.30;;;;;;5091606;28;20230;-83
2022/08/21 07:44:23;;;;;;;2.67;1.70;;;19.10;97.30;;;;;;5091533;28;20163;-83
2022/08/21 07:46:48;;;;;;;3.13;2.93;;;19.10;97.30;;;;;;5091218;28;20171;-83
2022/08/21 07:52:03;;;;;;;2.17;1.43;;;19.10;97.30;;;;;;5094287;28;20604;-84
2022/08/21 07:54:29;;;;;;;3.03;2.47;;;19.20;97.30;;;;;;5086574;28;20424;-84
2022/08/21 07:56:54;;;;;;;1.23;1.13;;;19.20;97.30;;;;;;5076939;28;20175;-84
2022/08/21 07:59:20;;;;;;;1.40;1.30;;;19.30;97.30;;;;;;5078784;28;20190;-84
2022/08/21 08:01:46;;;;;;;1.90;1.87;;;19.30;97.30;;;;;;5078556;28;20674;-86
2022/08/21 08:04:12;;;;;;;2.90;1.93;;;19.30;97.30;;;;;;5077513;28;20222;-83
2022/08/21 08:06:37;;;;;;;1.83;1.73;;;19.30;97.30;;;;;;5080871;28;20500;-84
2022/08/21 08:09:03;;;;;;;1.20;1.00;;;19.40;97.30;;;;;;5080256;28;20207;-84
2022/08/21 08:11:30;;;;;;;1.43;1.40;;;19.40;97.30;;;;;;5080780;28;20206;-84
2022/08/21 08:13:57;;;;;;;1.87;1.57;;;19.40;97.30;;;;;;5080007;28;20404;-84
2022/08/21 08:16:23;;;;;;;2.03;1.90;;;19.40;97.30;;;;;;5079832;28;20435;-84
2022/08/21 08:18:49;;;;;;;1.33;1.13;;;19.50;97.30;;;;;;5080868;28;20539;-84
2022/08/21 08:21:15;;;;;;;2.30;2.00;;;19.50;97.30;;;;;;5097208;28;20194;-84
2022/08/21 08:23:41;;;;;;;1.30;1.20;;;19.60;97.30;;;;;;5079787;28;20439;-84
2022/08/21 08:26:07;;;;;;;1.30;1.20;;;19.60;97.30;;;;;;5081052;28;20425;-83
2022/08/21 08:28:33;;;;;;;1.73;1.33;;;19.60;97.30;;;;;;5080826;28;20178;-83
2022/08/21 08:31:00;;;;;;;3.67;1.67;;;19.70;97.30;;;;;;5075140;28;20171;-83
2022/08/21 08:33:27;;;;;;;2.93;1.60;;;19.70;97.30;;;;;;5075383;28;20421;-83
2022/08/21 08:35:53;;;;;;;3.03;1.97;;;19.80;97.30;;;;;;5075734;28;20412;-83
2022/08/21 08:38:21;;;;;;;1.63;1.30;;;19.80;97.30;;;;;;5075486;28;20421;-84
2022/08/21 08:40:55;;;;;;;2.50;1.80;;;19.80;97.30;;;;;;5076416;28;20499;-84
2022/08/21 08:43:21;;;;;;;1.43;1.40;;;19.90;97.30;;;;;;5076819;28;20408;-83
2022/08/21 08:45:50;;;;;;;1.10;1.00;;;19.90;97.30;;;;;;5076160;28;20435;-83
2022/08/21 08:48:41;;;;;;;11.60;1.93;;;20.00;97.30;;;;;;5076242;28;20652;-83
2022/08/21 08:51:14;;;;;;;1.60;1.50;;;20.00;97.30;;;;;;5075866;28;20476;-83
2022/08/21 08:54:00;;;;;;;2.03;1.90;;;20.10;97.30;;;;;;5094095;28;20459;-83
2022/08/21 08:56:30;;;;;;;5.80;1.60;;;20.10;97.30;;;;;;5076294;28;20455;-83
2022/08/21 08:59:06;;;;;;;4.73;1.70;;;20.10;97.10;;;;;;5075910;28;20808;-83
2022/08/21 09:01:32;;;;;;;8.37;1.60;;;20.20;96.70;;;;;;5075681;28;20455;-83
2022/08/21 09:03:58;;;;;;;1.30;1.20;;;20.20;96.00;;;;;;5075720;28;20722;-83
2022/08/21 09:06:52;;;;;;;1.30;1.20;;;20.30;96.00;;;;;;5093709;28;20174;-83
2022/08/21 09:09:29;;;;;;;1.10;1.00;;;20.40;95.60;;;;;;5075426;28;20432;-83
2022/08/21 09:12:08;;;;;;;1.20;0.97;;;20.50;95.90;;;;;;5075617;28;20413;-83
2022/08/21 09:15:17;;;;;;;1.33;1.10;;;20.50;96.00;;;;;;5076280;28;20913;-83
2022/08/21 09:17:54;;;;;;;1.30;1.20;;;20.70;96.50;;;;;;4994394;28;20429;-82
2022/08/21 09:20:22;;;;;;;1.30;1.20;;;20.80;96.30;;;;;;4994962;28;21036;-83
2022/08/21 09:22:51;;;;;;;1.30;1.20;;;20.80;95.90;;;;;;5043007;28;20413;-82
2022/08/21 09:25:22;;;;;;;1.47;1.40;;;20.90;96.10;;;;;;5075952;28;20412;-82
2022/08/21 09:27:48;;;;;;;1.83;1.83;;;21.00;95.30;;;;;;5075819;28;20413;-82
2022/08/21 09:30:14;;;;;;;2.40;1.27;;;21.00;95.40;;;;;;5074628;28;21015;-82
2022/08/21 09:32:41;;;;;;;1.47;1.37;;;21.10;93.90;;;;;;5075313;28;20424;-82
2022/08/21 09:35:14;;;;;;;1.43;1.27;;;21.10;94.10;;;;;;5075672;28;20440;-82
2022/08/21 09:37:55;;;;;;;1.30;1.30;;;21.10;94.40;;;;;;5075689;28;20466;-82
2022/08/21 09:40:41;;;;;;;2.60;1.43;;;21.10;94.60;;;;;;5094138;28;20460;-82
2022/08/21 09:43:20;;;;;;;3.07;2.50;;;21.10;95.40;;;;;;5075207;28;20928;-82
2022/08/21 09:45:47;;;;;;;1.73;1.07;;;21.20;96.20;;;;;;5093649;28;20400;-81
2022/08/21 09:48:25;;;;;;;1.73;1.33;;;21.30;95.50;;;;;;5074717;28;20525;-82
2022/08/21 09:50:52;;;;;;;1.53;1.43;;;21.30;94.10;;;;;;5073976;28;20474;-81
2022/08/21 09:53:25;;;;;;;1.60;1.50;;;21.30;94.70;;;;;;5074907;28;20474;-82
2022/08/21 09:58:41;;;;;;;2.20;1.53;;;21.50;93.90;;;;;;5093627;28;20419;-82
2022/08/21 10:01:12;;;;;;;1.33;1.23;;;21.50;94.10;;;;;;5074843;28;20456;-82
2022/08/21 10:03:37;;;;;;;1.30;1.20;;;21.60;94.30;;;;;;5075173;28;20905;-82
2022/08/21 10:06:08;;;;;;;2.50;1.90;;;21.70;94.40;;;;;;5084177;28;20416;-82
2022/08/21 10:08:35;;;;;;;2.27;1.63;;;21.70;94.10;;;;;;5094978;28;20641;-82
2022/08/21 10:11:15;;;;;;;1.47;1.43;;;21.70;93.90;;;;;;5095031;28;20423;-82
2022/08/21 10:14:26;;;;;;;2.00;1.43;;;21.70;93.90;;;;;;5095978;28;20450;-82
2022/08/21 10:17:05;;;;;;;1.20;1.10;;;21.80;94.40;;;;;;5005785;28;20880;-82
2022/08/21 10:19:51;;;;;;;2.13;1.37;;;21.90;94.90;;;;;;5063986;28;20507;-82
2022/08/21 10:22:36;;;;;;;8.43;1.80;;;22.00;93.00;;;;;;5075999;28;20467;-81
2022/08/21 10:25:23;;;;;;;2.30;2.10;;;22.00;93.20;;;;;;5096556;28;20468;-82
2022/08/21 10:28:07;;;;;;;11.37;1.57;;;22.10;93.40;;;;;;5070914;28;20440;-82
2022/08/21 10:30:45;;;;;;;1.30;1.20;;;22.10;93.00;;;;;;5073924;28;20515;-82
2022/08/21 10:33:23;;;;;;;1.30;1.10;;;22.30;94.00;;;;;;5073311;28;20783;-81
2022/08/21 10:35:57;;;;;;;1.13;1.03;;;22.40;93.40;;;;;;5090398;28;21097;-82
2022/08/21 10:38:40;;;;;;;1.40;1.30;;;22.40;91.90;;;;;;5097482;28;20418;-82
2022/08/21 10:41:11;;;;;;;5.10;1.50;;;22.50;91.80;;;;;;5097507;28;20451;-81
2022/08/21 10:44:02;;;;;;;1.23;1.13;;;22.50;91.80;;;;;;5096415;28;20948;-82
2022/08/21 10:46:46;;;;;;;1.57;1.40;;;22.50;91.60;;;;;;5095890;28;20474;-81
2022/08/21 10:49:17;;;;;;;1.47;1.23;;;22.50;91.90;;;;;;5096751;28;20435;-84
2022/08/21 10:52:07;;;;;;;1.10;1.03;;;22.50;91.80;;;;;;5101300;28;20471;-84
2022/08/21 10:54:53;;;;;;;1.30;1.20;;;22.50;90.40;;;;;;5096948;28;20416;-86
2022/08/21 10:57:36;;;;;;;1.13;1.03;;;22.60;88.70;;;;;;5098596;28;20886;-85
2022/08/21 11:00:15;;;;;;;1.83;1.20;;;22.60;89.30;;;;;;5093245;28;20444;-86
2022/08/21 11:03:26;;;;;;;4.40;1.60;;;22.60;89.10;;;;;;5079027;28;20995;-85
2022/08/21 11:05:55;;;;;;;1.10;1.00;;;22.70;89.20;;;;;;5048492;28;20445;-85
2022/08/21 11:08:33;;;;;;;1.33;1.30;;;22.80;88.50;;;;;;5097213;28;20466;-84
2022/08/21 11:11:24;;;;;;;1.30;1.20;;;22.90;88.20;;;;;;5100267;28;20426;-83
2022/08/21 11:14:12;;;;;;;4.60;1.40;;;23.00;88.90;;;;;;5081033;28;20439;-83
2022/08/21 11:16:56;;;;;;;1.57;1.57;;;23.20;89.70;;;;;;5080083;28;20429;-83
2022/08/21 11:19:31;;;;;;;1.10;1.00;;;23.30;88.10;;;;;;5081638;28;20452;-83
2022/08/21 11:22:28;;;;;;;1.00;0.93;;;23.30;87.90;;;;;;5079160;28;20455;-83
2022/08/21 11:25:02;;;;;;;2.70;1.57;;;23.40;86.30;;;;;;5079772;28;20481;-83
2022/08/21 11:27:45;;;;;;;2.20;0.90;;;23.50;87.20;;;;;;5079625;28;20505;-83
2022/08/21 11:30:11;;;;;;;1.23;1.10;;;23.60;86.90;;;;;;5082519;28;20661;-83
2022/08/21 11:32:57;;;;;;;1.57;1.10;;;23.70;87.50;;;;;;5099672;28;20438;-83
2022/08/21 11:35:34;;;;;;;4.23;1.30;;;23.70;87.20;;;;;;5099469;28;20423;-83
2022/08/21 11:38:03;;;;;;;4.20;1.20;;;23.80;87.50;;;;;;5099995;28;20407;-83
2022/08/21 11:40:53;;;;;;;1.53;1.37;;;23.90;88.90;;;;;;5098798;28;20427;-82
2022/08/21 11:43:34;;;;;;;10.53;1.20;;;24.00;86.80;;;;;;5099965;28;20561;-83
2022/08/21 11:46:06;;;;;;;2.20;1.60;;;24.10;86.20;;;;;;5099270;28;20415;-82
2022/08/21 11:49:00;;;;;;;1.43;1.23;;;24.10;85.40;;;;;;5116824;28;20409;-82
2022/08/21 11:51:38;;;;;;;1.27;1.20;;;24.10;85.30;;;;;;5098189;28;20486;-82
2022/08/21 11:54:29;;;;;;;1.40;1.30;;;24.20;85.60;;;;;;5098789;28;20403;-82
2022/08/21 11:57:01;;;;;;;1.03;0.97;;;24.20;83.50;;;;;;5116445;28;20415;-82
2022/08/21 11:59:42;;;;;;;1.63;1.60;;;24.20;85.10;;;;;;5099139;28;20435;-82
2022/08/21 12:02:16;;;;;;;1.30;1.20;;;24.30;85.70;;;;;;5102472;28;20488;-83
2022/08/21 12:04:47;;;;;;;1.00;0.90;;;24.30;84.50;;;;;;5102250;28;20412;-83
2022/08/21 12:07:16;;;;;;;1.00;0.90;;;24.30;84.60;;;;;;5101528;28;20568;-84
2022/08/21 12:09:54;;;;;;;1.40;1.30;;;24.30;84.40;;;;;;5102474;28;20446;-82
2022/08/21 12:12:30;;;;;;;0.90;0.90;;;24.40;84.00;;;;;;5101957;28;20966;-82
2022/08/21 12:15:24;;;;;;;1.17;1.10;;;24.40;82.60;;;;;;5101899;28;20454;-83
2022/08/21 12:18:20;;;;;;;1.27;1.17;;;24.30;82.30;;;;;;5101544;28;20499;-82
2022/08/21 12:21:23;;;;;;;1.90;1.47;;;24.40;83.90;;;;;;5097475;28;20459;-84
2022/08/21 12:24:16;;;;;;;3.00;2.20;;;24.50;83.40;;;;;;5085641;28;20420;-84
2022/08/21 12:26:56;;;;;;;1.07;1.03;;;24.60;84.10;;;;;;5096479;28;20415;-84
2022/08/21 12:29:24;;;;;;;3.83;2.13;;;24.60;83.00;;;;;;5096615;28;20572;-84
2022/08/21 12:32:19;;;;;;;2.20;1.03;;;24.70;84.40;;;;;;5115670;28;20412;-84
2022/08/21 12:35:20;;;;;;;2.33;1.47;;;24.80;83.70;;;;;;5074498;28;20511;-82
2022/08/21 12:37:47;;;;;;;1.50;1.03;;;25.00;83.40;;;;;;5068160;28;20874;-82
2022/08/21 12:40:21;;;;;;;1.43;1.13;;;25.10;84.10;;;;;;5086656;28;20527;-82
2022/08/21 12:42:52;;;;;;;1.60;1.50;;;25.10;83.30;;;;;;5097190;28;20412;-82
2022/08/21 12:45:28;;;;;;;1.67;1.03;;;25.20;82.70;;;;;;5097906;28;20484;-83
2022/08/21 12:48:04;;;;;;;3.93;1.63;;;25.40;83.50;;;;;;5098615;28;20440;-83
2022/08/21 12:50:54;;;;;;;1.53;1.47;;;25.40;83.10;;;;;;5098771;28;20471;-83
2022/08/21 12:53:45;;;;;;;1.30;1.20;;;25.50;83.10;;;;;;5097856;28;20414;-83
2022/08/21 12:56:14;;;;;;;1.20;1.10;;;25.60;83.90;;;;;;5115359;28;20404;-83
2022/08/21 12:59:03;;;;;;;2.00;1.40;;;25.70;80.90;;;;;;5115394;28;20505;-83
2022/08/21 13:01:36;;;;;;;1.57;1.23;;;25.70;79.40;;;;;;5088166;28;20455;-83
2022/08/21 13:04:08;;;;;;;3.10;1.60;;;25.80;80.60;;;;;;5097180;28;20415;-83
2022/08/21 13:06:40;;;;;;;1.67;1.20;;;25.90;83.00;;;;;;5097539;28;20481;-83
2022/08/21 13:09:09;;;;;;;1.40;1.17;;;26.10;82.60;;;;;;5115552;28;20427;-83